sensor_id;sensor_type;location;lat;lon;timestamp;temperature;humidity
7476;DHT22;3779;49.216;8.650;2022-07-12T00:01:28;26.50;48.20
7476;DHT22;3779;49.216;8.650;2022-07-12T00:04:14;26.50;48.20
7476;DHT22;3779;49.216;8.650;2022-07-12T00:07:00;26.50;48.40
7476;DHT22;3779;49.216;8.650;2022-07-12T00:09:45;26.50;48.40
7476;DHT22;3779;49.216;8.650;2022-07-12T00:12:31;26.50;48.40
7476;DHT22;3779;49.216;8.650;2022-07-12T00:15:18;26.50;48.30
7476;DHT22;3779;49.216;8.650;2022-07-12T00:18:04;26.50;48.30
7476;DHT22;3779;49.216;8.650;2022-07-12T00:20:50;26.50;48.20
7476;DHT22;3779;49.216;8.650;2022-07-12T00:23:36;26.50;48.30
7476;DHT22;3779;49.216;8.650;2022-07-12T00:26:21;26.50;48.20
7476;DHT22;3779;49.216;8.650;2022-07-12T00:29:08;26.50;48.20
7476;DHT22;3779;49.216;8.650;2022-07-12T00:31:54;26.50;48.30
7476;DHT22;3779;49.216;8.650;2022-07-12T00:34:39;26.50;48.40
7476;DHT22;3779;49.216;8.650;2022-07-12T00:37:25;26.50;48.40
7476;DHT22;3779;49.216;8.650;2022-07-12T00:40:14;26.50;48.20
7476;DHT22;3779;49.216;8.650;2022-07-12T00:43:00;26.50;48.20
7476;DHT22;3779;49.216;8.650;2022-07-12T00:45:46;26.40;48.40
7476;DHT22;3779;49.216;8.650;2022-07-12T00:48:32;26.50;48.30
7476;DHT22;3779;49.216;8.650;2022-07-12T00:51:18;26.50;48.30
7476;DHT22;3779;49.216;8.650;2022-07-12T00:54:04;26.50;48.20
7476;DHT22;3779;49.216;8.650;2022-07-12T00:56:51;26.50;48.40
7476;DHT22;3779;49.216;8.650;2022-07-12T00:59:37;26.40;48.30
7476;DHT22;3779;49.216;8.650;2022-07-12T01:02:23;26.40;48.20
7476;DHT22;3779;49.216;8.650;2022-07-12T01:05:09;26.40;48.30
7476;DHT22;3779;49.216;8.650;2022-07-12T01:07:56;26.50;48.40
7476;DHT22;3779;49.216;8.650;2022-07-12T01:10:43;26.40;48.40
7476;DHT22;3779;49.216;8.650;2022-07-12T01:13:29;26.40;48.50
7476;DHT22;3779;49.216;8.650;2022-07-12T01:16:16;26.40;48.40
7476;DHT22;3779;49.216;8.650;2022-07-12T01:19:04;26.40;48.30
7476;DHT22;3779;49.216;8.650;2022-07-12T01:21:51;26.40;48.40
7476;DHT22;3779;49.216;8.650;2022-07-12T01:24:38;26.40;48.50
7476;DHT22;3779;49.216;8.650;2022-07-12T01:27:24;26.40;48.50
7476;DHT22;3779;49.216;8.650;2022-07-12T01:30:10;26.40;48.30
7476;DHT22;3779;49.216;8.650;2022-07-12T01:32:56;26.40;48.50
7476;DHT22;3779;49.216;8.650;2022-07-12T01:35:42;26.40;48.40
7476;DHT22;3779;49.216;8.650;2022-07-12T01:38:29;26.40;48.40
7476;DHT22;3779;49.216;8.650;2022-07-12T01:41:16;26.40;48.30
7476;DHT22;3779;49.216;8.650;2022-07-12T01:44:02;26.40;48.30
7476;DHT22;3779;49.216;8.650;2022-07-12T01:46:48;26.40;48.30
7476;DHT22;3779;49.216;8.650;2022-07-12T01:49:34;26.30;48.20
7476;DHT22;3779;49.216;8.650;2022-07-12T01:52:20;26.30;48.30
7476;DHT22;3779;49.216;8.650;2022-07-12T01:55:06;26.30;48.40
7476;DHT22;3779;49.216;8.650;2022-07-12T01:57:52;26.30;48.30
7476;DHT22;3779;49.216;8.650;2022-07-12T02:00:39;26.30;48.20
7476;DHT22;3779;49.216;8.650;2022-07-12T02:03:25;26.30;48.30
7476;DHT22;3779;49.216;8.650;2022-07-12T02:06:11;26.30;48.40
7476;DHT22;3779;49.216;8.650;2022-07-12T02:08:57;26.30;48.40
7476;DHT22;3779;49.216;8.650;2022-07-12T02:11:43;26.20;48.30
7476;DHT22;3779;49.216;8.650;2022-07-12T02:14:29;26.30;48.50
7476;DHT22;3779;49.216;8.650;2022-07-12T02:17:16;26.20;48.30
7476;DHT22;3779;49.216;8.650;2022-07-12T02:20:03;26.20;48.40
7476;DHT22;3779;49.216;8.650;2022-07-12T02:22:50;26.20;48.40
7476;DHT22;3779;49.216;8.650;2022-07-12T02:25:36;26.20;48.30
7476;DHT22;3779;49.216;8.650;2022-07-12T02:28:22;26.20;48.20
7476;DHT22;3779;49.216;8.650;2022-07-12T02:31:08;26.20;48.20
7476;DHT22;3779;49.216;8.650;2022-07-12T02:33:54;26.10;48.90
7476;DHT22;3779;49.216;8.650;2022-07-12T02:36:40;26.20;48.10
7476;DHT22;3779;49.216;8.650;2022-07-12T02:39:26;26.10;48.00
7476;DHT22;3779;49.216;8.650;2022-07-12T02:42:12;26.10;48.00
7476;DHT22;3779;49.216;8.650;2022-07-12T02:44:58;26.10;48.00
7476;DHT22;3779;49.216;8.650;2022-07-12T02:47:43;26.10;48.00
7476;DHT22;3779;49.216;8.650;2022-07-12T02:50:29;26.10;48.00
7476;DHT22;3779;49.216;8.650;2022-07-12T02:53:15;26.10;48.00
7476;DHT22;3779;49.216;8.650;2022-07-12T02:56:02;26.10;48.10
7476;DHT22;3779;49.216;8.650;2022-07-12T02:58:48;26.10;48.10
7476;DHT22;3779;49.216;8.650;2022-07-12T03:01:34;26.10;48.10
7476;DHT22;3779;49.216;8.650;2022-07-12T03:04:20;26.10;48.10
7476;DHT22;3779;49.216;8.650;2022-07-12T03:07:05;26.10;48.20
7476;DHT22;3779;49.216;8.650;2022-07-12T03:09:51;26.00;48.10
7476;DHT22;3779;49.216;8.650;2022-07-12T03:12:37;26.00;48.30
7476;DHT22;3779;49.216;8.650;2022-07-12T03:15:23;26.00;48.40
7476;DHT22;3779;49.216;8.650;2022-07-12T03:18:09;26.00;48.40
7476;DHT22;3779;49.216;8.650;2022-07-12T03:20:56;26.00;48.50
7476;DHT22;3779;49.216;8.650;2022-07-12T03:23:42;26.00;48.50
7476;DHT22;3779;49.216;8.650;2022-07-12T03:26:29;26.10;48.50
7476;DHT22;3779;49.216;8.650;2022-07-12T03:29:15;26.10;48.40
7476;DHT22;3779;49.216;8.650;2022-07-12T03:32:02;26.10;48.30
7476;DHT22;3779;49.216;8.650;2022-07-12T03:34:47;26.10;48.20
7476;DHT22;3779;49.216;8.650;2022-07-12T03:40:32;26.10;48.40
7476;DHT22;3779;49.216;8.650;2022-07-12T03:43:20;26.10;48.10
7476;DHT22;3779;49.216;8.650;2022-07-12T03:46:05;26.10;48.10
7476;DHT22;3779;49.216;8.650;2022-07-12T03:48:51;26.10;48.10
7476;DHT22;3779;49.216;8.650;2022-07-12T03:51:37;26.10;48.20
7476;DHT22;3779;49.216;8.650;2022-07-12T03:54:23;26.10;48.30
7476;DHT22;3779;49.216;8.650;2022-07-12T03:57:09;26.10;48.20
7476;DHT22;3779;49.216;8.650;2022-07-12T04:00:00;26.10;48.20
7476;DHT22;3779;49.216;8.650;2022-07-12T04:02:46;26.10;48.20
7476;DHT22;3779;49.216;8.650;2022-07-12T04:05:32;26.10;48.10
7476;DHT22;3779;49.216;8.650;2022-07-12T04:08:18;26.10;48.70
7476;DHT22;3779;49.216;8.650;2022-07-12T04:11:05;26.00;48.00
7476;DHT22;3779;49.216;8.650;2022-07-12T04:13:51;26.00;48.10
7476;DHT22;3779;49.216;8.650;2022-07-12T04:16:37;26.00;48.00
7476;DHT22;3779;49.216;8.650;2022-07-12T04:19:23;26.00;48.00
7476;DHT22;3779;49.216;8.650;2022-07-12T04:22:13;26.00;48.20
7476;DHT22;3779;49.216;8.650;2022-07-12T04:24:58;26.00;48.10
7476;DHT22;3779;49.216;8.650;2022-07-12T04:27:44;26.00;48.20
7476;DHT22;3779;49.216;8.650;2022-07-12T04:30:30;26.00;48.20
7476;DHT22;3779;49.216;8.650;2022-07-12T04:33:16;26.00;48.20
7476;DHT22;3779;49.216;8.650;2022-07-12T04:36:02;26.00;48.20
7476;DHT22;3779;49.216;8.650;2022-07-12T04:38:48;26.00;48.10
7476;DHT22;3779;49.216;8.650;2022-07-12T04:41:34;26.00;48.20
7476;DHT22;3779;49.216;8.650;2022-07-12T04:44:23;26.00;48.20
7476;DHT22;3779;49.216;8.650;2022-07-12T04:47:09;26.00;48.30
7476;DHT22;3779;49.216;8.650;2022-07-12T04:49:56;26.00;48.30
7476;DHT22;3779;49.216;8.650;2022-07-12T04:52:41;26.00;48.20
7476;DHT22;3779;49.216;8.650;2022-07-12T04:55:27;26.00;48.30
7476;DHT22;3779;49.216;8.650;2022-07-12T04:58:13;26.00;48.40
7476;DHT22;3779;49.216;8.650;2022-07-12T05:01:00;26.00;48.40
7476;DHT22;3779;49.216;8.650;2022-07-12T05:03:46;26.00;48.40
7476;DHT22;3779;49.216;8.650;2022-07-12T05:06:32;26.00;48.60
7476;DHT22;3779;49.216;8.650;2022-07-12T05:09:19;26.00;48.40
7476;DHT22;3779;49.216;8.650;2022-07-12T05:12:05;26.00;48.50
7476;DHT22;3779;49.216;8.650;2022-07-12T05:14:51;26.10;48.70
7476;DHT22;3779;49.216;8.650;2022-07-12T05:17:37;26.10;48.50
7476;DHT22;3779;49.216;8.650;2022-07-12T05:20:23;26.10;48.90
7476;DHT22;3779;49.216;8.650;2022-07-12T05:23:08;26.10;48.60
7476;DHT22;3779;49.216;8.650;2022-07-12T05:25:54;26.10;48.70
7476;DHT22;3779;49.216;8.650;2022-07-12T05:28:40;26.10;48.70
7476;DHT22;3779;49.216;8.650;2022-07-12T05:31:26;26.10;48.60
7476;DHT22;3779;49.216;8.650;2022-07-12T05:34:12;26.10;48.70
7476;DHT22;3779;49.216;8.650;2022-07-12T05:36:58;26.10;48.80
7476;DHT22;3779;49.216;8.650;2022-07-12T05:39:44;26.20;48.80
7476;DHT22;3779;49.216;8.650;2022-07-12T05:42:30;26.10;48.90
7476;DHT22;3779;49.216;8.650;2022-07-12T05:45:15;26.10;48.90
7476;DHT22;3779;49.216;8.650;2022-07-12T05:48:01;26.10;49.00
7476;DHT22;3779;49.216;8.650;2022-07-12T05:50:47;26.20;48.90
7476;DHT22;3779;49.216;8.650;2022-07-12T05:53:33;26.20;48.90
7476;DHT22;3779;49.216;8.650;2022-07-12T05:56:19;26.20;49.00
7476;DHT22;3779;49.216;8.650;2022-07-12T05:59:05;26.20;49.10
7476;DHT22;3779;49.216;8.650;2022-07-12T06:01:50;26.20;49.30
7476;DHT22;3779;49.216;8.650;2022-07-12T06:04:36;26.20;49.20
7476;DHT22;3779;49.216;8.650;2022-07-12T06:07:22;26.20;49.40
7476;DHT22;3779;49.216;8.650;2022-07-12T06:10:08;26.20;49.50
7476;DHT22;3779;49.216;8.650;2022-07-12T06:12:54;26.30;49.50
7476;DHT22;3779;49.216;8.650;2022-07-12T06:15:40;26.30;49.50
7476;DHT22;3779;49.216;8.650;2022-07-12T06:18:26;26.30;49.50
7476;DHT22;3779;49.216;8.650;2022-07-12T06:21:12;26.30;49.50
7476;DHT22;3779;49.216;8.650;2022-07-12T06:23:58;26.30;49.50
7476;DHT22;3779;49.216;8.650;2022-07-12T06:26:44;26.30;49.60
7476;DHT22;3779;49.216;8.650;2022-07-12T06:29:30;26.30;50.30
7476;DHT22;3779;49.216;8.650;2022-07-12T06:32:17;26.30;49.70
7476;DHT22;3779;49.216;8.650;2022-07-12T06:35:03;26.30;49.70
7476;DHT22;3779;49.216;8.650;2022-07-12T06:37:49;26.30;50.00
7476;DHT22;3779;49.216;8.650;2022-07-12T06:40:35;26.30;49.90
7476;DHT22;3779;49.216;8.650;2022-07-12T06:43:21;26.40;50.10
7476;DHT22;3779;49.216;8.650;2022-07-12T06:46:07;26.40;50.20
7476;DHT22;3779;49.216;8.650;2022-07-12T06:48:52;26.40;50.30
7476;DHT22;3779;49.216;8.650;2022-07-12T06:51:38;26.40;50.10
7476;DHT22;3779;49.216;8.650;2022-07-12T06:54:25;26.40;50.10
7476;DHT22;3779;49.216;8.650;2022-07-12T06:57:11;26.40;49.90
7476;DHT22;3779;49.216;8.650;2022-07-12T06:59:57;26.40;50.00
7476;DHT22;3779;49.216;8.650;2022-07-12T07:02:43;26.50;49.90
7476;DHT22;3779;49.216;8.650;2022-07-12T07:05:28;26.50;49.80
7476;DHT22;3779;49.216;8.650;2022-07-12T07:08:14;26.50;49.80
7476;DHT22;3779;49.216;8.650;2022-07-12T07:11:00;26.50;49.70
7476;DHT22;3779;49.216;8.650;2022-07-12T07:13:46;26.50;49.80
7476;DHT22;3779;49.216;8.650;2022-07-12T07:16:32;26.50;50.20
7476;DHT22;3779;49.216;8.650;2022-07-12T07:19:18;26.50;49.80
7476;DHT22;3779;49.216;8.650;2022-07-12T07:22:04;26.50;49.80
7476;DHT22;3779;49.216;8.650;2022-07-12T07:24:49;26.50;49.80
7476;DHT22;3779;49.216;8.650;2022-07-12T07:27:35;26.50;49.80
7476;DHT22;3779;49.216;8.650;2022-07-12T07:30:21;26.50;49.60
7476;DHT22;3779;49.216;8.650;2022-07-12T07:33:26;26.60;49.70
7476;DHT22;3779;49.216;8.650;2022-07-12T07:36:12;26.60;49.60
7476;DHT22;3779;49.216;8.650;2022-07-12T07:38:58;26.60;49.50
7476;DHT22;3779;49.216;8.650;2022-07-12T07:41:44;26.60;49.60
7476;DHT22;3779;49.216;8.650;2022-07-12T07:44:30;26.60;49.60
7476;DHT22;3779;49.216;8.650;2022-07-12T07:47:15;26.60;49.50
7476;DHT22;3779;49.216;8.650;2022-07-12T07:50:01;26.60;49.10
7476;DHT22;3779;49.216;8.650;2022-07-12T07:52:47;26.70;49.10
7476;DHT22;3779;49.216;8.650;2022-07-12T07:55:35;26.60;49.00
7476;DHT22;3779;49.216;8.650;2022-07-12T07:58:21;26.60;49.10
7476;DHT22;3779;49.216;8.650;2022-07-12T08:01:07;26.70;48.70
7476;DHT22;3779;49.216;8.650;2022-07-12T08:03:53;26.70;48.30
7476;DHT22;3779;49.216;8.650;2022-07-12T08:06:39;26.70;48.50
7476;DHT22;3779;49.216;8.650;2022-07-12T08:09:25;26.70;48.30
7476;DHT22;3779;49.216;8.650;2022-07-12T08:12:11;26.60;48.80
7476;DHT22;3779;49.216;8.650;2022-07-12T08:14:57;26.70;48.50
7476;DHT22;3779;49.216;8.650;2022-07-12T08:17:43;26.70;48.30
7476;DHT22;3779;49.216;8.650;2022-07-12T08:20:29;26.70;48.30
7476;DHT22;3779;49.216;8.650;2022-07-12T08:23:15;26.70;48.00
7476;DHT22;3779;49.216;8.650;2022-07-12T08:26:01;26.70;48.40
7476;DHT22;3779;49.216;8.650;2022-07-12T08:28:46;26.70;48.30
7476;DHT22;3779;49.216;8.650;2022-07-12T08:31:33;26.60;49.30
7476;DHT22;3779;49.216;8.650;2022-07-12T08:34:20;26.60;49.50
7476;DHT22;3779;49.216;8.650;2022-07-12T08:37:06;26.50;49.50
7476;DHT22;3779;49.216;8.650;2022-07-12T08:39:51;26.60;48.80
7476;DHT22;3779;49.216;8.650;2022-07-12T08:42:41;26.60;49.50
7476;DHT22;3779;49.216;8.650;2022-07-12T08:45:27;26.60;49.60
7476;DHT22;3779;49.216;8.650;2022-07-12T08:48:13;26.60;49.60
7476;DHT22;3779;49.216;8.650;2022-07-12T08:51:01;26.50;49.70
7476;DHT22;3779;49.216;8.650;2022-07-12T08:53:47;26.50;49.80
7476;DHT22;3779;49.216;8.650;2022-07-12T08:56:49;26.50;49.90
7476;DHT22;3779;49.216;8.650;2022-07-12T08:59:36;26.40;49.80
7476;DHT22;3779;49.216;8.650;2022-07-12T09:02:21;26.40;50.00
7476;DHT22;3779;49.216;8.650;2022-07-12T09:05:08;26.40;50.00
7476;DHT22;3779;49.216;8.650;2022-07-12T09:08:09;26.30;50.20
7476;DHT22;3779;49.216;8.650;2022-07-12T09:11:02;26.40;50.20
7476;DHT22;3779;49.216;8.650;2022-07-12T09:13:53;26.40;50.10
7476;DHT22;3779;49.216;8.650;2022-07-12T09:16:39;26.40;50.30
7476;DHT22;3779;49.216;8.650;2022-07-12T09:19:25;26.40;50.20
7476;DHT22;3779;49.216;8.650;2022-07-12T09:22:15;26.40;50.00
7476;DHT22;3779;49.216;8.650;2022-07-12T09:25:16;26.40;49.90
7476;DHT22;3779;49.216;8.650;2022-07-12T09:28:05;26.60;49.60
7476;DHT22;3779;49.216;8.650;2022-07-12T09:30:52;26.50;49.80
7476;DHT22;3779;49.216;8.650;2022-07-12T09:33:39;26.50;50.10
7476;DHT22;3779;49.216;8.650;2022-07-12T09:36:54;26.50;50.20
7476;DHT22;3779;49.216;8.650;2022-07-12T09:39:41;26.40;50.20
7476;DHT22;3779;49.216;8.650;2022-07-12T09:42:27;26.50;50.10
7476;DHT22;3779;49.216;8.650;2022-07-12T09:45:15;26.70;48.70
7476;DHT22;3779;49.216;8.650;2022-07-12T09:47:51;26.70;49.50
7476;DHT22;3779;49.216;8.650;2022-07-12T09:50:38;26.50;50.00
7476;DHT22;3779;49.216;8.650;2022-07-12T09:53:27;26.40;50.10
7476;DHT22;3779;49.216;8.650;2022-07-12T09:56:18;26.40;50.00
7476;DHT22;3779;49.216;8.650;2022-07-12T09:58:56;26.40;50.20
7476;DHT22;3779;49.216;8.650;2022-07-12T10:01:42;26.40;50.10
7476;DHT22;3779;49.216;8.650;2022-07-12T10:04:29;26.40;49.90
7476;DHT22;3779;49.216;8.650;2022-07-12T10:07:16;26.50;49.80
7476;DHT22;3779;49.216;8.650;2022-07-12T10:10:02;26.50;49.70
7476;DHT22;3779;49.216;8.650;2022-07-12T10:12:48;26.50;49.90
7476;DHT22;3779;49.216;8.650;2022-07-12T10:15:34;26.40;49.90
7476;DHT22;3779;49.216;8.650;2022-07-12T10:18:21;26.40;49.80
7476;DHT22;3779;49.216;8.650;2022-07-12T10:21:20;26.40;50.00
7476;DHT22;3779;49.216;8.650;2022-07-12T10:30:15;26.40;50.20
7476;DHT22;3779;49.216;8.650;2022-07-12T10:33:01;26.40;50.20
7476;DHT22;3779;49.216;8.650;2022-07-12T10:36:07;26.40;50.10
7476;DHT22;3779;49.216;8.650;2022-07-12T10:39:12;26.40;50.20
7476;DHT22;3779;49.216;8.650;2022-07-12T10:44:50;26.40;50.00
7476;DHT22;3779;49.216;8.650;2022-07-12T10:53:46;26.40;49.90
7476;DHT22;3779;49.216;8.650;2022-07-12T10:56:34;26.40;49.80
7476;DHT22;3779;49.216;8.650;2022-07-12T10:59:26;26.40;49.80
7476;DHT22;3779;49.216;8.650;2022-07-12T11:02:13;26.50;49.70
7476;DHT22;3779;49.216;8.650;2022-07-12T11:04:59;26.50;49.50
7476;DHT22;3779;49.216;8.650;2022-07-12T11:07:44;26.50;49.50
7476;DHT22;3779;49.216;8.650;2022-07-12T11:10:31;26.50;49.60
7476;DHT22;3779;49.216;8.650;2022-07-12T11:13:20;26.50;49.70
7476;DHT22;3779;49.216;8.650;2022-07-12T11:16:08;26.50;49.70
7476;DHT22;3779;49.216;8.650;2022-07-12T11:18:59;26.50;49.80
7476;DHT22;3779;49.216;8.650;2022-07-12T11:21:46;26.50;49.70
7476;DHT22;3779;49.216;8.650;2022-07-12T11:24:32;26.60;49.20
7476;DHT22;3779;49.216;8.650;2022-07-12T11:27:20;26.60;49.60
7476;DHT22;3779;49.216;8.650;2022-07-12T11:30:07;26.60;49.60
7476;DHT22;3779;49.216;8.650;2022-07-12T11:32:54;26.50;49.90
7476;DHT22;3779;49.216;8.650;2022-07-12T11:35:40;26.50;49.30
7476;DHT22;3779;49.216;8.650;2022-07-12T11:38:29;26.80;48.60
7476;DHT22;3779;49.216;8.650;2022-07-12T11:41:15;26.90;48.80
7476;DHT22;3779;49.216;8.650;2022-07-12T11:44:01;26.70;49.30
7476;DHT22;3779;49.216;8.650;2022-07-12T11:46:50;26.60;49.50
7476;DHT22;3779;49.216;8.650;2022-07-12T11:49:51;26.50;49.50
7476;DHT22;3779;49.216;8.650;2022-07-12T11:52:38;26.50;49.80
7476;DHT22;3779;49.216;8.650;2022-07-12T11:55:23;26.50;49.40
7476;DHT22;3779;49.216;8.650;2022-07-12T11:58:09;26.60;49.50
7476;DHT22;3779;49.216;8.650;2022-07-12T12:00:56;26.60;49.60
7476;DHT22;3779;49.216;8.650;2022-07-12T12:03:46;26.60;49.50
7476;DHT22;3779;49.216;8.650;2022-07-12T12:06:32;26.50;49.60
7476;DHT22;3779;49.216;8.650;2022-07-12T12:09:18;26.50;49.70
7476;DHT22;3779;49.216;8.650;2022-07-12T12:12:13;26.50;49.50
7476;DHT22;3779;49.216;8.650;2022-07-12T12:15:11;26.60;49.60
7476;DHT22;3779;49.216;8.650;2022-07-12T12:18:07;26.50;49.50
7476;DHT22;3779;49.216;8.650;2022-07-12T12:20:58;26.60;49.50
7476;DHT22;3779;49.216;8.650;2022-07-12T12:23:44;26.60;49.40
7476;DHT22;3779;49.216;8.650;2022-07-12T12:26:30;26.60;49.40
7476;DHT22;3779;49.216;8.650;2022-07-12T12:29:16;26.60;49.30
7476;DHT22;3779;49.216;8.650;2022-07-12T12:32:02;26.60;49.50
7476;DHT22;3779;49.216;8.650;2022-07-12T12:35:10;26.50;49.50
7476;DHT22;3779;49.216;8.650;2022-07-12T12:38:11;26.50;49.80
7476;DHT22;3779;49.216;8.650;2022-07-12T12:40:57;26.50;49.70
7476;DHT22;3779;49.216;8.650;2022-07-12T12:43:43;26.40;49.60
7476;DHT22;3779;49.216;8.650;2022-07-12T12:46:59;26.50;49.20
7476;DHT22;3779;49.216;8.650;2022-07-12T12:50:11;26.60;49.40
7476;DHT22;3779;49.216;8.650;2022-07-12T12:52:57;26.60;49.40
7476;DHT22;3779;49.216;8.650;2022-07-12T12:56:13;26.50;49.40
7476;DHT22;3779;49.216;8.650;2022-07-12T12:58:59;26.50;49.60
7476;DHT22;3779;49.216;8.650;2022-07-12T13:01:44;26.50;49.30
7476;DHT22;3779;49.216;8.650;2022-07-12T13:04:34;26.50;49.30
7476;DHT22;3779;49.216;8.650;2022-07-12T13:07:21;26.60;49.50
7476;DHT22;3779;49.216;8.650;2022-07-12T13:10:07;26.50;49.40
7476;DHT22;3779;49.216;8.650;2022-07-12T13:12:53;26.50;49.40
7476;DHT22;3779;49.216;8.650;2022-07-12T13:15:39;26.50;49.40
7476;DHT22;3779;49.216;8.650;2022-07-12T13:18:25;26.50;49.30
7476;DHT22;3779;49.216;8.650;2022-07-12T13:21:11;26.50;49.40
7476;DHT22;3779;49.216;8.650;2022-07-12T13:23:56;26.50;49.40
7476;DHT22;3779;49.216;8.650;2022-07-12T13:26:38;26.60;49.50
7476;DHT22;3779;49.216;8.650;2022-07-12T13:29:23;26.60;49.40
7476;DHT22;3779;49.216;8.650;2022-07-12T13:32:10;26.60;49.30
7476;DHT22;3779;49.216;8.650;2022-07-12T13:34:56;26.70;49.00
7476;DHT22;3779;49.216;8.650;2022-07-12T13:37:43;26.70;49.10
7476;DHT22;3779;49.216;8.650;2022-07-12T13:40:28;26.60;49.40
7476;DHT22;3779;49.216;8.650;2022-07-12T13:43:14;26.60;49.30
7476;DHT22;3779;49.216;8.650;2022-07-12T13:46:00;26.60;49.40
7476;DHT22;3779;49.216;8.650;2022-07-12T13:48:36;26.60;49.20
7476;DHT22;3779;49.216;8.650;2022-07-12T13:51:04;26.70;49.00
7476;DHT22;3779;49.216;8.650;2022-07-12T13:53:50;26.60;49.00
7476;DHT22;3779;49.216;8.650;2022-07-12T13:56:36;26.60;49.30
7476;DHT22;3779;49.216;8.650;2022-07-12T13:59:13;26.50;49.30
7476;DHT22;3779;49.216;8.650;2022-07-12T14:01:59;26.60;49.50
7476;DHT22;3779;49.216;8.650;2022-07-12T14:04:46;26.50;49.40
7476;DHT22;3779;49.216;8.650;2022-07-12T14:07:32;26.50;49.50
7476;DHT22;3779;49.216;8.650;2022-07-12T14:10:18;26.50;49.50
7476;DHT22;3779;49.216;8.650;2022-07-12T14:13:04;26.60;49.70
7476;DHT22;3779;49.216;8.650;2022-07-12T14:15:50;26.60;49.50
7476;DHT22;3779;49.216;8.650;2022-07-12T14:18:36;26.60;49.50
7476;DHT22;3779;49.216;8.650;2022-07-12T14:21:22;26.70;49.10
7476;DHT22;3779;49.216;8.650;2022-07-12T14:24:07;26.60;49.30
7476;DHT22;3779;49.216;8.650;2022-07-12T14:26:55;26.60;50.10
7476;DHT22;3779;49.216;8.650;2022-07-12T14:29:41;26.70;49.30
7476;DHT22;3779;49.216;8.650;2022-07-12T14:32:27;26.60;49.20
7476;DHT22;3779;49.216;8.650;2022-07-12T14:35:13;26.60;49.30
7476;DHT22;3779;49.216;8.650;2022-07-12T14:37:59;26.70;49.20
7476;DHT22;3779;49.216;8.650;2022-07-12T14:40:45;26.70;49.90
7476;DHT22;3779;49.216;8.650;2022-07-12T14:43:31;26.60;49.20
7476;DHT22;3779;49.216;8.650;2022-07-12T14:46:17;26.70;49.20
7476;DHT22;3779;49.216;8.650;2022-07-12T14:49:03;26.70;49.40
7476;DHT22;3779;49.216;8.650;2022-07-12T14:51:49;26.60;49.50
7476;DHT22;3779;49.216;8.650;2022-07-12T14:54:35;26.60;49.50
7476;DHT22;3779;49.216;8.650;2022-07-12T14:57:21;26.60;49.50
7476;DHT22;3779;49.216;8.650;2022-07-12T15:00:07;26.60;50.20
7476;DHT22;3779;49.216;8.650;2022-07-12T15:02:54;26.60;49.60
7476;DHT22;3779;49.216;8.650;2022-07-12T15:05:34;26.60;49.60
7476;DHT22;3779;49.216;8.650;2022-07-12T15:08:20;26.70;49.40
7476;DHT22;3779;49.216;8.650;2022-07-12T15:11:06;26.70;49.60
7476;DHT22;3779;49.216;8.650;2022-07-12T15:13:52;26.60;49.60
7476;DHT22;3779;49.216;8.650;2022-07-12T15:16:38;26.70;49.60
7476;DHT22;3779;49.216;8.650;2022-07-12T15:19:24;26.70;49.60
7476;DHT22;3779;49.216;8.650;2022-07-12T15:22:10;26.70;49.50
7476;DHT22;3779;49.216;8.650;2022-07-12T15:24:57;26.70;49.60
7476;DHT22;3779;49.216;8.650;2022-07-12T15:27:43;26.70;49.50
7476;DHT22;3779;49.216;8.650;2022-07-12T15:30:30;26.70;49.60
7476;DHT22;3779;49.216;8.650;2022-07-12T15:33:16;26.70;49.60
7476;DHT22;3779;49.216;8.650;2022-07-12T15:36:02;26.70;49.70
7476;DHT22;3779;49.216;8.650;2022-07-12T15:38:48;26.70;49.70
7476;DHT22;3779;49.216;8.650;2022-07-12T15:41:35;26.60;49.70
7476;DHT22;3779;49.216;8.650;2022-07-12T15:44:21;26.60;49.80
7476;DHT22;3779;49.216;8.650;2022-07-12T15:46:49;26.60;49.70
7476;DHT22;3779;49.216;8.650;2022-07-12T15:49:15;26.70;49.70
7476;DHT22;3779;49.216;8.650;2022-07-12T15:52:01;26.70;49.70
7476;DHT22;3779;49.216;8.650;2022-07-12T15:55:05;26.70;49.20
7476;DHT22;3779;49.216;8.650;2022-07-12T15:57:56;26.90;48.90
7476;DHT22;3779;49.216;8.650;2022-07-12T16:00:42;27.00;48.00
7476;DHT22;3779;49.216;8.650;2022-07-12T16:03:29;26.80;49.00
7476;DHT22;3779;49.216;8.650;2022-07-12T16:06:15;26.80;49.60
7476;DHT22;3779;49.216;8.650;2022-07-12T16:09:03;26.70;49.70
7476;DHT22;3779;49.216;8.650;2022-07-12T16:11:49;26.70;49.50
7476;DHT22;3779;49.216;8.650;2022-07-12T16:14:34;26.70;49.60
7476;DHT22;3779;49.216;8.650;2022-07-12T16:17:21;26.60;49.60
7476;DHT22;3779;49.216;8.650;2022-07-12T16:20:08;26.70;49.50
7476;DHT22;3779;49.216;8.650;2022-07-12T16:22:54;26.70;49.70
7476;DHT22;3779;49.216;8.650;2022-07-12T16:25:40;26.70;49.70
7476;DHT22;3779;49.216;8.650;2022-07-12T16:28:25;26.70;49.80
7476;DHT22;3779;49.216;8.650;2022-07-12T16:31:11;26.70;49.70
7476;DHT22;3779;49.216;8.650;2022-07-12T16:33:57;26.70;49.80
7476;DHT22;3779;49.216;8.650;2022-07-12T16:36:43;26.70;49.60
7476;DHT22;3779;49.216;8.650;2022-07-12T16:39:29;26.70;49.50
7476;DHT22;3779;49.216;8.650;2022-07-12T16:42:14;26.70;49.50
7476;DHT22;3779;49.216;8.650;2022-07-12T16:45:00;26.70;49.40
7476;DHT22;3779;49.216;8.650;2022-07-12T16:47:46;26.70;49.60
7476;DHT22;3779;49.216;8.650;2022-07-12T16:50:32;26.70;49.60
7476;DHT22;3779;49.216;8.650;2022-07-12T16:53:20;26.70;49.50
7476;DHT22;3779;49.216;8.650;2022-07-12T16:56:07;26.70;49.50
7476;DHT22;3779;49.216;8.650;2022-07-12T16:58:53;26.70;49.40
7476;DHT22;3779;49.216;8.650;2022-07-12T17:01:39;26.70;49.30
7476;DHT22;3779;49.216;8.650;2022-07-12T17:04:25;26.70;49.40
7476;DHT22;3779;49.216;8.650;2022-07-12T17:07:11;26.70;49.40
7476;DHT22;3779;49.216;8.650;2022-07-12T17:09:57;26.70;49.50
7476;DHT22;3779;49.216;8.650;2022-07-12T17:12:44;26.70;49.50
7476;DHT22;3779;49.216;8.650;2022-07-12T17:15:30;26.70;49.30
7476;DHT22;3779;49.216;8.650;2022-07-12T17:18:16;26.70;49.30
7476;DHT22;3779;49.216;8.650;2022-07-12T17:21:02;26.70;49.40
7476;DHT22;3779;49.216;8.650;2022-07-12T17:23:48;26.80;49.20
7476;DHT22;3779;49.216;8.650;2022-07-12T17:26:34;26.80;49.50
7476;DHT22;3779;49.216;8.650;2022-07-12T17:29:20;26.80;49.40
7476;DHT22;3779;49.216;8.650;2022-07-12T17:32:05;26.70;49.50
7476;DHT22;3779;49.216;8.650;2022-07-12T17:34:51;26.80;49.50
7476;DHT22;3779;49.216;8.650;2022-07-12T17:37:37;27.00;48.70
7476;DHT22;3779;49.216;8.650;2022-07-12T17:40:23;27.20;48.00
7476;DHT22;3779;49.216;8.650;2022-07-12T17:43:09;27.20;47.20
7476;DHT22;3779;49.216;8.650;2022-07-12T17:45:55;27.30;47.10
7476;DHT22;3779;49.216;8.650;2022-07-12T17:48:40;27.30;46.70
7476;DHT22;3779;49.216;8.650;2022-07-12T17:51:27;27.40;46.20
7476;DHT22;3779;49.216;8.650;2022-07-12T17:54:13;27.30;47.10
7476;DHT22;3779;49.216;8.650;2022-07-12T17:56:59;27.40;47.20
7476;DHT22;3779;49.216;8.650;2022-07-12T17:59:45;27.40;46.80
7476;DHT22;3779;49.216;8.650;2022-07-12T18:02:32;27.40;46.20
7476;DHT22;3779;49.216;8.650;2022-07-12T18:05:17;27.40;46.90
7476;DHT22;3779;49.216;8.650;2022-07-12T18:08:03;27.40;47.20
7476;DHT22;3779;49.216;8.650;2022-07-12T18:10:49;27.40;47.10
7476;DHT22;3779;49.216;8.650;2022-07-12T18:13:35;27.40;47.10
7476;DHT22;3779;49.216;8.650;2022-07-12T18:16:40;27.40;46.70
7476;DHT22;3779;49.216;8.650;2022-07-12T18:19:26;27.40;47.00
7476;DHT22;3779;49.216;8.650;2022-07-12T18:22:12;27.50;46.90
7476;DHT22;3779;49.216;8.650;2022-07-12T18:24:58;27.50;46.70
7476;DHT22;3779;49.216;8.650;2022-07-12T18:27:44;27.50;47.10